CheckWX is a tool to help pilots better visualize weather data.  It is not intended as a substitute for an official pre-flight weather briefing.

01:05:40 UTC

KABE TAF
Lehigh Valley International Airport
Allentown, Pennsylvania, USA
KABE 192320Z 2000/2024 31004KT P6SM SKC FM200800 00000KT 6SM BR SCT010 TEMPO 2008/2012 4SM BR FM201200 VRB03KT P6SM SCT040 BKN200 FM201900 18005KT P6SM VCSH BKN040

Aug-20@
00:00 UTC

Aug-20 @ 00:00 UTC

Aug-20@
08:00 UTC

Aug-20 @ 08:00 UTC

KABE 192320Z 2000/2024 31004KT P6SM SKC
Wind
  • 310° at 4 KTS
Cloud Levels
  • Clear skies

Aug-20@
08:00 UTC

Aug-20 @ 08:00 UTC

Aug-20@
12:00 UTC

Aug-20 @ 12:00 UTC

FM200800 00000KT 6SM BR SCT010

From

From Standard forecast or significant change

Conditions
Mist
Cloud Levels
  • Scattered at 1,000' AGL

Aug-20@
08:00 UTC

Aug-20 @ 08:00 UTC

Aug-20@
12:00 UTC

Aug-20 @ 12:00 UTC

TEMPO 2008/2012 4SM BR

Temporary

Temporary Changes expected for less than half the time period

Conditions
Mist

Aug-20@
12:00 UTC

Aug-20 @ 12:00 UTC

Aug-20@
19:00 UTC

Aug-20 @ 19:00 UTC

FM201200 VRB03KT P6SM SCT040 BKN200

From

From Standard forecast or significant change

Wind
  • Variable at 3 KTS
Cloud Levels
  • Scattered at 4,000' AGL
  • Broken at 20,000' AGL

Aug-20@
19:00 UTC

Aug-20 @ 19:00 UTC

Aug-21@
00:00 UTC

Aug-21 @ 00:00 UTC

FM201900 18005KT P6SM VCSH BKN040

From

From Standard forecast or significant change

Wind
  • 180° at 5 KTS
Cloud Levels
  • Broken at 4,000' AGL